createdAt,value
2023-04-28T00:00:29.226Z,6.10
2023-04-28T00:02:59.560Z,5.80
2023-04-28T00:07:54.052Z,6.20
2023-04-28T00:10:21.090Z,4.00
2023-04-28T00:12:48.047Z,6.20
2023-04-28T00:15:15.702Z,4.80
2023-04-28T00:17:43.457Z,6.30
2023-04-28T00:20:11.650Z,11.40
2023-04-28T00:22:38.531Z,5.50
2023-04-28T00:25:06.862Z,10.90
2023-04-28T00:27:36.697Z,8.60
2023-04-28T00:30:04.156Z,6.90
2023-04-28T00:32:31.227Z,8.00
2023-04-28T00:34:58.246Z,6.20
2023-04-28T00:37:25.673Z,6.60
2023-04-28T00:40:02.242Z,5.20
2023-04-28T00:42:29.187Z,8.40
2023-04-28T00:44:56.232Z,8.90
2023-04-28T00:47:23.319Z,6.40
2023-04-28T00:49:52.407Z,7.50
2023-04-28T00:52:19.350Z,5.20
2023-04-28T00:54:48.007Z,6.60
2023-04-28T00:57:15.056Z,3.70
2023-04-28T00:59:42.103Z,11.20
2023-04-28T01:02:08.932Z,9.00
2023-04-28T01:04:42.327Z,5.00
2023-04-28T01:07:09.598Z,5.70
2023-04-28T01:09:36.881Z,12.30
2023-04-28T01:12:05.059Z,4.80
2023-04-28T01:14:43.430Z,7.20
2023-04-28T01:17:10.641Z,4.00
2023-04-28T01:19:38.240Z,7.40
2023-04-28T01:22:05.543Z,5.40
2023-04-28T01:24:32.753Z,5.60
2023-04-28T01:27:03.175Z,7.20
2023-04-28T01:29:30.144Z,5.40
2023-04-28T01:31:57.431Z,8.30
2023-04-28T01:34:27.254Z,7.60
2023-04-28T01:36:54.121Z,4.90
2023-04-28T01:39:21.182Z,4.40
2023-04-28T01:41:48.047Z,8.00
2023-04-28T01:44:15.115Z,7.60
2023-04-28T01:46:42.301Z,6.20
2023-04-28T01:49:12.129Z,7.00
2023-04-28T01:51:41.800Z,5.20
2023-04-28T01:54:08.793Z,7.00
2023-04-28T01:56:38.724Z,9.10
2023-04-28T05:08:45.349Z,6.20
2023-04-28T08:12:08.325Z,2.90
2023-04-28T08:23:23.449Z,36.70
2023-04-28T08:30:10.829Z,6.90
2023-04-28T09:21:09.346Z,5.80
2023-04-28T09:28:22.452Z,6.10
2023-04-28T09:31:25.112Z,3.00
2023-04-28T09:38:45.066Z,5.70
2023-04-28T09:51:03.693Z,4.40
2023-04-28T09:53:30.697Z,2.20
2023-04-28T10:04:47.700Z,1.80
2023-04-28T11:19:37.118Z,1.40
2023-04-28T11:49:05.739Z,5.80
2023-04-28T12:23:05.145Z,3.60
2023-04-28T12:34:46.254Z,7.30
2023-04-28T12:41:58.730Z,3.00
2023-04-28T12:49:09.044Z,17.10
2023-04-28T12:56:20.262Z,3.40
2023-04-28T13:03:30.302Z,2.90
2023-04-28T13:10:41.275Z,5.30
2023-04-28T14:57:01.439Z,10.10
2023-04-28T15:35:33.162Z,4.30
2023-04-28T15:47:05.182Z,7.80
2023-04-28T16:04:31.203Z,9.50
2023-04-28T16:07:02.552Z,3.40
2023-04-28T16:09:30.092Z,2.90
2023-04-28T16:11:59.832Z,4.30
2023-04-28T16:14:27.062Z,6.00
2023-04-28T16:16:57.233Z,4.70
2023-04-28T16:19:26.153Z,6.00
2023-04-28T16:21:53.619Z,8.10
2023-04-28T16:24:22.511Z,9.00
2023-04-28T16:26:51.413Z,8.40
2023-04-28T16:29:18.856Z,10.90
2023-04-28T16:31:45.972Z,7.00
2023-04-28T16:34:13.969Z,4.20
2023-04-28T16:36:41.894Z,5.10
2023-04-28T16:39:09.635Z,10.50
2023-04-28T16:41:37.761Z,7.40
2023-04-28T16:44:05.887Z,7.20
2023-04-28T16:46:33.067Z,6.10
2023-04-28T16:49:00.549Z,5.60
2023-04-28T16:51:28.472Z,4.00
2023-04-28T16:53:55.882Z,6.20
2023-04-28T16:56:27.630Z,5.90
2023-04-28T16:58:54.698Z,4.70
2023-04-28T17:01:22.142Z,8.10
2023-04-28T17:03:53.175Z,7.20
2023-04-28T17:06:28.171Z,3.20
2023-04-28T17:08:55.265Z,6.80
2023-04-28T17:11:22.872Z,4.00
2023-04-28T17:13:50.997Z,3.70
2023-04-28T17:16:19.718Z,8.00
2023-04-28T17:18:47.839Z,5.00
2023-04-28T17:21:14.997Z,8.30
2023-04-28T17:23:42.784Z,4.90
2023-04-28T17:26:11.989Z,8.20
2023-04-28T17:28:41.456Z,9.80
2023-04-28T17:31:08.733Z,9.40
2023-04-28T17:33:35.882Z,6.20
2023-04-28T17:36:03.617Z,11.70
2023-04-28T17:38:31.390Z,10.80
2023-04-28T17:40:58.604Z,7.60
2023-04-28T17:43:26.055Z,12.10
2023-04-28T17:45:54.387Z,10.40
2023-04-28T17:48:23.161Z,8.70
2023-04-28T17:50:50.356Z,8.20
2023-04-28T17:53:18.188Z,6.80
2023-04-28T17:55:46.751Z,7.40
2023-04-28T17:58:13.802Z,4.40
2023-04-28T18:00:42.099Z,9.10
2023-04-28T18:03:09.175Z,8.20
2023-04-28T18:05:44.921Z,6.60
2023-04-28T18:08:13.974Z,7.20
2023-04-28T18:10:42.757Z,9.30
2023-04-28T18:13:10.685Z,9.30
2023-04-28T18:15:37.881Z,8.20
2023-04-28T18:18:06.871Z,8.10
2023-04-28T18:20:33.853Z,8.00
2023-04-28T18:23:02.196Z,9.00
2023-04-28T18:25:32.354Z,7.50
2023-04-28T18:27:59.970Z,5.30
2023-04-28T18:30:40.846Z,10.20
2023-04-28T18:33:08.748Z,11.10
2023-04-28T18:35:39.805Z,21.40
2023-04-28T18:38:07.921Z,11.30
2023-04-28T18:40:38.861Z,17.50
2023-04-28T18:43:10.576Z,14.70
2023-04-28T18:45:39.581Z,18.10
2023-04-28T18:48:08.006Z,16.70
2023-04-28T18:50:36.362Z,17.70
2023-04-28T18:53:04.531Z,16.60
2023-04-28T18:55:35.069Z,19.70
2023-04-28T18:58:02.367Z,18.90
2023-04-28T19:00:35.699Z,19.40
2023-04-28T19:03:04.513Z,18.30
2023-04-28T19:05:31.890Z,14.90
2023-04-28T19:07:58.816Z,18.20
2023-04-28T19:10:25.997Z,14.80
2023-04-28T19:12:53.214Z,14.70
2023-04-28T19:15:20.868Z,14.10
2023-04-28T19:17:48.048Z,11.80
2023-04-28T19:20:15.982Z,14.70
2023-04-28T19:22:46.776Z,13.80
2023-04-28T19:27:41.440Z,10.30
2023-04-28T19:30:11.070Z,8.10
2023-04-28T19:32:39.874Z,8.50
2023-04-28T19:35:07.494Z,10.30
2023-04-28T19:37:35.366Z,8.20
2023-04-28T19:40:05.155Z,13.50
2023-04-28T19:42:33.744Z,12.90
2023-04-28T19:45:00.805Z,12.90
2023-04-28T19:47:33.079Z,16.20
2023-04-28T19:50:00.975Z,17.00
2023-04-28T19:52:28.904Z,15.90
2023-04-28T19:54:56.116Z,14.40
2023-04-28T19:57:24.373Z,15.90
2023-04-28T19:59:52.179Z,15.10
2023-04-28T20:02:21.323Z,17.00
2023-04-28T20:04:51.849Z,12.90
2023-04-28T20:07:21.927Z,23.10
2023-04-28T20:09:50.116Z,10.00
2023-04-28T20:12:19.729Z,13.10
2023-04-28T20:14:47.377Z,13.20
2023-04-28T20:17:14.358Z,12.20
2023-04-28T20:19:42.487Z,12.80
2023-04-28T20:22:10.048Z,11.90
2023-04-28T20:24:39.540Z,10.70
2023-04-28T20:27:06.602Z,11.00
2023-04-28T20:29:37.707Z,9.60
2023-04-28T20:32:05.010Z,11.20
2023-04-28T20:34:34.085Z,16.30
2023-04-28T20:37:03.694Z,14.40
2023-04-28T20:39:31.158Z,17.00
2023-04-28T20:41:59.983Z,16.10
2023-04-28T20:44:27.949Z,16.30
2023-04-28T20:46:55.526Z,13.80
2023-04-28T20:49:22.809Z,23.70
2023-04-28T20:51:51.215Z,16.70
2023-04-28T20:54:18.961Z,15.10
2023-04-28T20:56:45.952Z,15.30
2023-04-28T20:59:14.822Z,15.00
2023-04-28T21:01:41.938Z,15.40
2023-04-28T21:04:10.098Z,11.30
2023-04-28T21:06:38.513Z,18.00
2023-04-28T21:09:05.546Z,16.80
2023-04-28T21:11:32.823Z,13.00
2023-04-28T21:14:00.169Z,20.80
2023-04-28T21:16:27.883Z,20.80
2023-04-28T21:18:55.166Z,23.10
2023-04-28T21:21:22.977Z,15.80
2023-04-28T21:23:50.916Z,18.50
2023-04-28T21:26:20.508Z,19.20
2023-04-28T21:28:47.925Z,10.90
2023-04-28T21:31:14.827Z,14.80
2023-04-28T21:33:44.805Z,21.80
2023-04-28T21:36:12.113Z,27.10
2023-04-28T21:38:42.706Z,20.00
2023-04-28T21:41:12.614Z,25.00
2023-04-28T21:43:40.699Z,20.50
2023-04-28T21:46:08.018Z,23.90
2023-04-28T21:48:37.534Z,21.80
2023-04-28T21:51:05.016Z,17.00
2023-04-28T21:53:32.967Z,16.70
2023-04-28T21:56:00.888Z,15.90
2023-04-28T21:58:28.205Z,18.00
2023-04-28T22:00:55.364Z,11.50
2023-04-28T22:03:23.024Z,10.70
2023-04-28T22:05:51.382Z,25.40
2023-04-28T22:08:19.083Z,19.20
2023-04-28T22:10:47.013Z,21.20
2023-04-28T22:15:44.027Z,12.70
2023-04-28T22:18:12.773Z,15.90
2023-04-28T22:20:40.575Z,27.30
2023-04-28T22:23:08.408Z,23.30
2023-04-28T22:25:35.948Z,19.50
2023-04-28T22:28:05.910Z,16.90
2023-04-28T22:30:33.122Z,18.50
2023-04-28T22:33:00.283Z,16.30
2023-04-28T22:35:28.276Z,11.60
2023-04-28T22:37:56.917Z,14.20
2023-04-28T22:40:23.913Z,13.30
2023-04-28T22:50:50.269Z,12.90
2023-04-28T22:53:18.211Z,13.50
2023-04-28T22:55:45.880Z,18.90
2023-04-28T22:58:12.905Z,10.70
2023-04-28T23:00:39.826Z,16.10
2023-04-28T23:03:06.935Z,15.00
2023-04-28T23:05:40.367Z,11.00
2023-04-28T23:08:07.901Z,12.30
2023-04-28T23:10:35.012Z,10.90
2023-04-28T23:13:02.060Z,20.20
2023-04-28T23:15:29.821Z,14.80
2023-04-28T23:17:56.846Z,13.50
2023-04-28T23:20:24.953Z,18.40
2023-04-28T23:22:52.714Z,12.40
2023-04-28T23:25:19.703Z,18.80
2023-04-28T23:27:48.675Z,14.90
2023-04-28T23:30:16.086Z,13.90
2023-04-28T23:32:44.174Z,18.10
2023-04-28T23:35:11.216Z,22.90
2023-04-28T23:37:38.984Z,23.50
2023-04-28T23:40:06.821Z,16.90
2023-04-28T23:42:33.994Z,13.70
2023-04-28T23:45:01.677Z,20.00
2023-04-28T23:47:30.780Z,18.30
2023-04-28T23:49:59.009Z,17.40
2023-04-28T23:52:27.233Z,12.30
2023-04-28T23:54:54.055Z,17.60
2023-04-28T23:57:21.250Z,15.60
